sensor_id;sensor_type;location;lat;lon;timestamp;P1;durP1;ratioP1;P2;durP2;ratioP2
37411;SDS011;23278;52.110;6.050;2022-09-09T00:01:10;1.40;;;0.80;;
37411;SDS011;23278;52.110;6.050;2022-09-09T00:04:09;1.00;;;0.80;;
37411;SDS011;23278;52.110;6.050;2022-09-09T00:10:09;3.58;;;0.70;;
37411;SDS011;23278;52.110;6.050;2022-09-09T00:12:41;1.92;;;1.10;;
37411;SDS011;23278;52.110;6.050;2022-09-09T00:15:23;2.05;;;0.63;;
37411;SDS011;23278;52.110;6.050;2022-09-09T00:18:36;4.03;;;1.15;;
37411;SDS011;23278;52.110;6.050;2022-09-09T00:21:13;2.35;;;1.00;;
37411;SDS011;23278;52.110;6.050;2022-09-09T00:23:53;1.88;;;0.50;;
37411;SDS011;23278;52.110;6.050;2022-09-09T00:31:29;1.70;;;0.68;;
37411;SDS011;23278;52.110;6.050;2022-09-09T00:33:58;0.85;;;0.60;;
37411;SDS011;23278;52.110;6.050;2022-09-09T00:36:30;1.25;;;0.77;;
37411;SDS011;23278;52.110;6.050;2022-09-09T00:38:59;1.02;;;0.60;;
37411;SDS011;23278;52.110;6.050;2022-09-09T00:50:00;1.55;;;0.70;;
37411;SDS011;23278;52.110;6.050;2022-09-09T00:58:42;1.50;;;1.08;;
37411;SDS011;23278;52.110;6.050;2022-09-09T01:01:15;1.45;;;0.98;;
37411;SDS011;23278;52.110;6.050;2022-09-09T01:03:54;2.70;;;0.90;;
37411;SDS011;23278;52.110;6.050;2022-09-09T01:06:30;2.80;;;1.55;;
37411;SDS011;23278;52.110;6.050;2022-09-09T01:20:08;1.90;;;1.10;;
37411;SDS011;23278;52.110;6.050;2022-09-09T01:28:37;1.40;;;1.13;;
37411;SDS011;23278;52.110;6.050;2022-09-09T01:31:09;3.00;;;0.93;;
37411;SDS011;23278;52.110;6.050;2022-09-09T01:33:42;3.05;;;1.20;;
37411;SDS011;23278;52.110;6.050;2022-09-09T01:38:49;1.20;;;0.90;;
37411;SDS011;23278;52.110;6.050;2022-09-09T01:41:16;2.47;;;1.27;;
37411;SDS011;23278;52.110;6.050;2022-09-09T01:46:14;2.92;;;1.77;;
37411;SDS011;23278;52.110;6.050;2022-09-09T01:48:41;4.40;;;1.75;;
37411;SDS011;23278;52.110;6.050;2022-09-09T01:51:13;3.80;;;1.42;;
37411;SDS011;23278;52.110;6.050;2022-09-09T01:54:03;2.70;;;1.20;;
37411;SDS011;23278;52.110;6.050;2022-09-09T01:59:53;3.78;;;1.20;;
37411;SDS011;23278;52.110;6.050;2022-09-09T02:07:42;4.00;;;0.93;;
37411;SDS011;23278;52.110;6.050;2022-09-09T02:10:45;1.75;;;0.80;;
37411;SDS011;23278;52.110;6.050;2022-09-09T02:13:31;2.55;;;0.93;;
37411;SDS011;23278;52.110;6.050;2022-09-09T02:16:01;2.03;;;1.25;;
37411;SDS011;23278;52.110;6.050;2022-09-09T02:18:38;1.90;;;0.98;;
37411;SDS011;23278;52.110;6.050;2022-09-09T02:21:11;1.40;;;0.98;;
37411;SDS011;23278;52.110;6.050;2022-09-09T02:23:39;2.00;;;1.08;;
37411;SDS011;23278;52.110;6.050;2022-09-09T02:26:10;5.32;;;1.20;;
37411;SDS011;23278;52.110;6.050;2022-09-09T02:28:40;0.93;;;0.70;;
37411;SDS011;23278;52.110;6.050;2022-09-09T02:31:07;1.27;;;1.00;;
37411;SDS011;23278;52.110;6.050;2022-09-09T02:33:40;2.55;;;1.10;;
37411;SDS011;23278;52.110;6.050;2022-09-09T02:36:08;2.42;;;1.08;;
37411;SDS011;23278;52.110;6.050;2022-09-09T02:38:40;2.28;;;1.23;;
37411;SDS011;23278;52.110;6.050;2022-09-09T02:41:13;4.13;;;1.40;;
37411;SDS011;23278;52.110;6.050;2022-09-09T02:43:39;1.90;;;1.10;;
37411;SDS011;23278;52.110;6.050;2022-09-09T02:49:10;2.00;;;1.15;;
37411;SDS011;23278;52.110;6.050;2022-09-09T02:51:58;1.55;;;0.90;;
37411;SDS011;23278;52.110;6.050;2022-09-09T02:54:33;1.98;;;1.40;;
37411;SDS011;23278;52.110;6.050;2022-09-09T02:57:21;1.38;;;0.90;;
37411;SDS011;23278;52.110;6.050;2022-09-09T02:59:51;1.92;;;1.02;;
37411;SDS011;23278;52.110;6.050;2022-09-09T03:02:20;4.35;;;1.40;;
37411;SDS011;23278;52.110;6.050;2022-09-09T03:04:52;2.00;;;0.98;;
37411;SDS011;23278;52.110;6.050;2022-09-09T03:07:19;2.55;;;1.38;;
37411;SDS011;23278;52.110;6.050;2022-09-09T03:09:46;2.33;;;1.10;;
37411;SDS011;23278;52.110;6.050;2022-09-09T03:12:12;2.63;;;1.20;;
37411;SDS011;23278;52.110;6.050;2022-09-09T03:14:39;2.15;;;1.27;;
37411;SDS011;23278;52.110;6.050;2022-09-09T03:17:05;1.88;;;1.20;;
37411;SDS011;23278;52.110;6.050;2022-09-09T03:19:37;4.57;;;1.85;;
37411;SDS011;23278;52.110;6.050;2022-09-09T03:22:05;4.13;;;2.25;;
37411;SDS011;23278;52.110;6.050;2022-09-09T03:24:34;2.65;;;1.67;;
37411;SDS011;23278;52.110;6.050;2022-09-09T03:27:02;3.47;;;1.80;;
37411;SDS011;23278;52.110;6.050;2022-09-09T03:29:29;2.15;;;1.63;;
37411;SDS011;23278;52.110;6.050;2022-09-09T03:31:57;2.85;;;1.50;;
37411;SDS011;23278;52.110;6.050;2022-09-09T03:34:23;2.97;;;1.40;;
37411;SDS011;23278;52.110;6.050;2022-09-09T03:36:49;1.98;;;1.48;;
37411;SDS011;23278;52.110;6.050;2022-09-09T03:39:15;2.95;;;1.40;;
37411;SDS011;23278;52.110;6.050;2022-09-09T03:41:42;2.70;;;1.55;;
37411;SDS011;23278;52.110;6.050;2022-09-09T03:44:10;2.78;;;1.98;;
37411;SDS011;23278;52.110;6.050;2022-09-09T03:46:39;2.15;;;1.40;;
37411;SDS011;23278;52.110;6.050;2022-09-09T03:49:05;3.33;;;2.30;;
37411;SDS011;23278;52.110;6.050;2022-09-09T03:51:31;4.10;;;2.05;;
37411;SDS011;23278;52.110;6.050;2022-09-09T03:53:59;3.63;;;2.83;;
37411;SDS011;23278;52.110;6.050;2022-09-09T03:56:27;3.50;;;2.15;;
37411;SDS011;23278;52.110;6.050;2022-09-09T03:58:53;3.30;;;2.38;;
37411;SDS011;23278;52.110;6.050;2022-09-09T04:01:19;2.92;;;2.05;;
37411;SDS011;23278;52.110;6.050;2022-09-09T04:03:45;5.45;;;2.90;;
37411;SDS011;23278;52.110;6.050;2022-09-09T04:06:12;4.25;;;3.00;;
37411;SDS011;23278;52.110;6.050;2022-09-09T04:08:41;3.13;;;2.67;;
37411;SDS011;23278;52.110;6.050;2022-09-09T04:11:07;6.05;;;2.83;;
37411;SDS011;23278;52.110;6.050;2022-09-09T04:13:35;4.50;;;2.85;;
37411;SDS011;23278;52.110;6.050;2022-09-09T04:16:07;4.22;;;2.28;;
37411;SDS011;23278;52.110;6.050;2022-09-09T04:18:36;3.67;;;2.78;;
37411;SDS011;23278;52.110;6.050;2022-09-09T04:21:02;3.95;;;2.55;;
37411;SDS011;23278;52.110;6.050;2022-09-09T04:23:31;4.85;;;3.22;;
37411;SDS011;23278;52.110;6.050;2022-09-09T04:25:59;6.25;;;3.20;;
37411;SDS011;23278;52.110;6.050;2022-09-09T04:28:28;7.20;;;3.63;;
37411;SDS011;23278;52.110;6.050;2022-09-09T04:30:56;7.35;;;3.45;;
37411;SDS011;23278;52.110;6.050;2022-09-09T04:33:29;5.43;;;2.60;;
37411;SDS011;23278;52.110;6.050;2022-09-09T04:35:55;4.30;;;2.50;;
37411;SDS011;23278;52.110;6.050;2022-09-09T04:38:23;3.58;;;2.10;;
37411;SDS011;23278;52.110;6.050;2022-09-09T04:40:50;2.72;;;2.03;;
37411;SDS011;23278;52.110;6.050;2022-09-09T04:43:17;5.45;;;3.03;;
37411;SDS011;23278;52.110;6.050;2022-09-09T04:45:46;9.77;;;2.70;;
37411;SDS011;23278;52.110;6.050;2022-09-09T04:48:13;6.07;;;2.22;;
37411;SDS011;23278;52.110;6.050;2022-09-09T04:50:40;3.90;;;3.10;;
37411;SDS011;23278;52.110;6.050;2022-09-09T04:53:07;4.43;;;3.03;;
37411;SDS011;23278;52.110;6.050;2022-09-09T04:55:35;5.85;;;3.40;;
37411;SDS011;23278;52.110;6.050;2022-09-09T04:58:05;2.83;;;2.38;;
37411;SDS011;23278;52.110;6.050;2022-09-09T05:00:33;4.28;;;2.08;;
37411;SDS011;23278;52.110;6.050;2022-09-09T05:03:05;5.82;;;2.13;;
37411;SDS011;23278;52.110;6.050;2022-09-09T05:05:33;3.20;;;1.92;;
37411;SDS011;23278;52.110;6.050;2022-09-09T05:08:00;6.15;;;2.28;;
37411;SDS011;23278;52.110;6.050;2022-09-09T05:10:28;3.85;;;2.30;;
37411;SDS011;23278;52.110;6.050;2022-09-09T05:12:55;5.85;;;2.70;;
37411;SDS011;23278;52.110;6.050;2022-09-09T05:15:24;4.95;;;2.40;;
37411;SDS011;23278;52.110;6.050;2022-09-09T05:17:51;2.85;;;1.90;;
37411;SDS011;23278;52.110;6.050;2022-09-09T05:20:18;5.28;;;2.47;;
37411;SDS011;23278;52.110;6.050;2022-09-09T05:22:44;4.00;;;2.10;;
37411;SDS011;23278;52.110;6.050;2022-09-09T05:25:10;4.80;;;2.67;;
37411;SDS011;23278;52.110;6.050;2022-09-09T05:27:36;5.07;;;3.08;;
37411;SDS011;23278;52.110;6.050;2022-09-09T05:30:03;4.88;;;3.03;;
37411;SDS011;23278;52.110;6.050;2022-09-09T05:32:30;5.28;;;3.17;;
37411;SDS011;23278;52.110;6.050;2022-09-09T05:34:59;4.28;;;2.53;;
37411;SDS011;23278;52.110;6.050;2022-09-09T05:37:25;3.80;;;1.95;;
37411;SDS011;23278;52.110;6.050;2022-09-09T05:39:51;4.95;;;2.42;;
37411;SDS011;23278;52.110;6.050;2022-09-09T05:42:18;4.22;;;2.20;;
37411;SDS011;23278;52.110;6.050;2022-09-09T05:44:44;4.75;;;2.72;;
37411;SDS011;23278;52.110;6.050;2022-09-09T05:47:11;3.97;;;2.35;;
37411;SDS011;23278;52.110;6.050;2022-09-09T05:49:37;2.88;;;1.70;;
37411;SDS011;23278;52.110;6.050;2022-09-09T05:52:03;3.42;;;2.00;;
37411;SDS011;23278;52.110;6.050;2022-09-09T05:54:29;4.80;;;2.63;;
37411;SDS011;23278;52.110;6.050;2022-09-09T05:56:55;3.83;;;1.98;;
37411;SDS011;23278;52.110;6.050;2022-09-09T05:59:22;6.47;;;2.25;;
37411;SDS011;23278;52.110;6.050;2022-09-09T06:01:50;3.25;;;2.15;;
37411;SDS011;23278;52.110;6.050;2022-09-09T06:04:25;3.22;;;1.50;;
37411;SDS011;23278;52.110;6.050;2022-09-09T06:06:51;3.42;;;1.80;;
37411;SDS011;23278;52.110;6.050;2022-09-09T06:09:20;3.10;;;1.20;;
37411;SDS011;23278;52.110;6.050;2022-09-09T06:11:46;3.42;;;1.52;;
37411;SDS011;23278;52.110;6.050;2022-09-09T06:14:13;4.88;;;2.20;;
37411;SDS011;23278;52.110;6.050;2022-09-09T06:16:39;4.07;;;1.85;;
37411;SDS011;23278;52.110;6.050;2022-09-09T06:19:14;8.07;;;1.70;;
37411;SDS011;23278;52.110;6.050;2022-09-09T06:21:40;8.05;;;2.65;;
37411;SDS011;23278;52.110;6.050;2022-09-09T06:24:08;5.15;;;2.20;;
37411;SDS011;23278;52.110;6.050;2022-09-09T06:26:36;4.35;;;2.25;;
37411;SDS011;23278;52.110;6.050;2022-09-09T06:29:07;8.88;;;3.58;;
37411;SDS011;23278;52.110;6.050;2022-09-09T06:31:34;7.35;;;3.70;;
37411;SDS011;23278;52.110;6.050;2022-09-09T06:34:22;4.30;;;2.20;;
37411;SDS011;23278;52.110;6.050;2022-09-09T06:36:56;6.13;;;2.38;;
37411;SDS011;23278;52.110;6.050;2022-09-09T06:39:24;5.97;;;2.95;;
37411;SDS011;23278;52.110;6.050;2022-09-09T06:41:51;7.10;;;3.17;;
37411;SDS011;23278;52.110;6.050;2022-09-09T06:44:38;6.25;;;2.92;;
37411;SDS011;23278;52.110;6.050;2022-09-09T06:47:07;6.93;;;3.72;;
37411;SDS011;23278;52.110;6.050;2022-09-09T06:49:33;7.95;;;3.47;;
37411;SDS011;23278;52.110;6.050;2022-09-09T06:52:02;7.50;;;2.63;;
37411;SDS011;23278;52.110;6.050;2022-09-09T06:54:28;6.90;;;2.72;;
37411;SDS011;23278;52.110;6.050;2022-09-09T06:56:54;4.28;;;2.30;;
37411;SDS011;23278;52.110;6.050;2022-09-09T06:59:22;9.02;;;1.88;;
37411;SDS011;23278;52.110;6.050;2022-09-09T07:01:51;3.78;;;1.80;;
37411;SDS011;23278;52.110;6.050;2022-09-09T07:04:18;7.75;;;2.03;;
37411;SDS011;23278;52.110;6.050;2022-09-09T07:06:45;10.82;;;2.53;;
37411;SDS011;23278;52.110;6.050;2022-09-09T07:09:16;6.30;;;2.88;;
37411;SDS011;23278;52.110;6.050;2022-09-09T07:11:45;5.93;;;2.03;;
37411;SDS011;23278;52.110;6.050;2022-09-09T07:14:14;8.15;;;2.03;;
37411;SDS011;23278;52.110;6.050;2022-09-09T07:16:44;3.22;;;2.10;;
37411;SDS011;23278;52.110;6.050;2022-09-09T07:19:12;7.53;;;1.90;;
37411;SDS011;23278;52.110;6.050;2022-09-09T07:21:40;4.38;;;1.95;;
37411;SDS011;23278;52.110;6.050;2022-09-09T07:24:08;8.13;;;1.70;;
37411;SDS011;23278;52.110;6.050;2022-09-09T07:26:36;5.38;;;2.03;;
37411;SDS011;23278;52.110;6.050;2022-09-09T07:29:03;6.03;;;1.38;;
37411;SDS011;23278;52.110;6.050;2022-09-09T07:31:30;2.78;;;1.02;;
37411;SDS011;23278;52.110;6.050;2022-09-09T07:33:59;5.97;;;1.33;;
37411;SDS011;23278;52.110;6.050;2022-09-09T07:36:27;4.47;;;1.30;;
37411;SDS011;23278;52.110;6.050;2022-09-09T07:39:03;4.88;;;1.15;;
37411;SDS011;23278;52.110;6.050;2022-09-09T07:41:33;7.55;;;1.45;;
37411;SDS011;23278;52.110;6.050;2022-09-09T07:44:05;4.55;;;1.63;;
37411;SDS011;23278;52.110;6.050;2022-09-09T07:46:33;7.10;;;1.48;;
37411;SDS011;23278;52.110;6.050;2022-09-09T07:49:00;4.88;;;1.23;;
37411;SDS011;23278;52.110;6.050;2022-09-09T07:51:31;8.63;;;1.70;;
37411;SDS011;23278;52.110;6.050;2022-09-09T07:54:00;6.88;;;1.15;;
37411;SDS011;23278;52.110;6.050;2022-09-09T07:56:30;5.63;;;1.05;;
37411;SDS011;23278;52.110;6.050;2022-09-09T07:58:57;6.72;;;1.65;;
37411;SDS011;23278;52.110;6.050;2022-09-09T08:01:26;5.57;;;1.08;;
37411;SDS011;23278;52.110;6.050;2022-09-09T08:03:58;6.13;;;1.48;;
37411;SDS011;23278;52.110;6.050;2022-09-09T08:06:29;6.07;;;1.23;;
37411;SDS011;23278;52.110;6.050;2022-09-09T08:08:58;6.72;;;1.35;;
37411;SDS011;23278;52.110;6.050;2022-09-09T08:11:26;3.13;;;1.40;;
37411;SDS011;23278;52.110;6.050;2022-09-09T08:13:54;6.65;;;1.40;;
37411;SDS011;23278;52.110;6.050;2022-09-09T08:16:31;6.65;;;1.17;;
37411;SDS011;23278;52.110;6.050;2022-09-09T08:18:59;6.35;;;1.40;;
37411;SDS011;23278;52.110;6.050;2022-09-09T08:21:26;6.57;;;2.35;;
37411;SDS011;23278;52.110;6.050;2022-09-09T08:23:56;3.08;;;0.90;;
37411;SDS011;23278;52.110;6.050;2022-09-09T08:26:24;3.85;;;1.10;;
37411;SDS011;23278;52.110;6.050;2022-09-09T08:28:56;7.57;;;1.70;;
37411;SDS011;23278;52.110;6.050;2022-09-09T08:31:27;6.22;;;1.33;;
37411;SDS011;23278;52.110;6.050;2022-09-09T08:33:55;5.55;;;1.25;;
37411;SDS011;23278;52.110;6.050;2022-09-09T08:36:23;6.18;;;1.27;;
37411;SDS011;23278;52.110;6.050;2022-09-09T08:38:54;5.07;;;1.00;;
37411;SDS011;23278;52.110;6.050;2022-09-09T08:44:14;4.38;;;0.93;;
37411;SDS011;23278;52.110;6.050;2022-09-09T08:52:51;4.47;;;1.10;;
37411;SDS011;23278;52.110;6.050;2022-09-09T08:55:45;4.00;;;1.23;;
37411;SDS011;23278;52.110;6.050;2022-09-09T08:58:21;4.53;;;1.10;;
37411;SDS011;23278;52.110;6.050;2022-09-09T09:08:55;4.35;;;0.98;;
37411;SDS011;23278;52.110;6.050;2022-09-09T09:11:34;2.55;;;1.33;;
37411;SDS011;23278;52.110;6.050;2022-09-09T09:14:17;3.88;;;0.85;;
37411;SDS011;23278;52.110;6.050;2022-09-09T09:16:56;3.13;;;0.95;;
37411;SDS011;23278;52.110;6.050;2022-09-09T09:19:29;4.50;;;0.95;;
37411;SDS011;23278;52.110;6.050;2022-09-09T09:22:04;11.02;;;1.65;;
37411;SDS011;23278;52.110;6.050;2022-09-09T09:27:15;2.78;;;0.80;;
37411;SDS011;23278;52.110;6.050;2022-09-09T09:29:56;3.85;;;0.80;;
37411;SDS011;23278;52.110;6.050;2022-09-09T09:32:26;4.40;;;0.90;;
37411;SDS011;23278;52.110;6.050;2022-09-09T09:34:57;5.22;;;0.80;;
37411;SDS011;23278;52.110;6.050;2022-09-09T09:37:31;3.40;;;1.40;;
37411;SDS011;23278;52.110;6.050;2022-09-09T09:40:08;3.72;;;0.82;;
37411;SDS011;23278;52.110;6.050;2022-09-09T09:42:38;2.75;;;1.30;;
37411;SDS011;23278;52.110;6.050;2022-09-09T09:48:02;5.25;;;1.33;;
37411;SDS011;23278;52.110;6.050;2022-09-09T09:50:39;4.03;;;0.88;;
37411;SDS011;23278;52.110;6.050;2022-09-09T09:53:20;2.78;;;0.80;;
37411;SDS011;23278;52.110;6.050;2022-09-09T09:58:22;6.70;;;1.48;;
37411;SDS011;23278;52.110;6.050;2022-09-09T10:00:50;6.03;;;1.35;;
37411;SDS011;23278;52.110;6.050;2022-09-09T10:03:22;3.97;;;0.73;;
37411;SDS011;23278;52.110;6.050;2022-09-09T10:06:03;4.68;;;1.17;;
37411;SDS011;23278;52.110;6.050;2022-09-09T10:08:29;2.90;;;0.90;;
37411;SDS011;23278;52.110;6.050;2022-09-09T10:16:37;4.35;;;0.80;;
37411;SDS011;23278;52.110;6.050;2022-09-09T10:22:17;3.90;;;1.17;;
37411;SDS011;23278;52.110;6.050;2022-09-09T10:27:51;3.70;;;1.17;;
37411;SDS011;23278;52.110;6.050;2022-09-09T10:30:24;2.88;;;0.98;;
37411;SDS011;23278;52.110;6.050;2022-09-09T10:33:13;2.97;;;0.60;;
37411;SDS011;23278;52.110;6.050;2022-09-09T10:38:38;3.28;;;1.13;;
37411;SDS011;23278;52.110;6.050;2022-09-09T10:46:52;5.88;;;0.88;;
37411;SDS011;23278;52.110;6.050;2022-09-09T10:49:24;2.53;;;0.80;;
37411;SDS011;23278;52.110;6.050;2022-09-09T10:52:21;6.07;;;1.00;;
37411;SDS011;23278;52.110;6.050;2022-09-09T10:58:04;7.43;;;1.10;;
37411;SDS011;23278;52.110;6.050;2022-09-09T11:00:44;3.28;;;0.65;;
37411;SDS011;23278;52.110;6.050;2022-09-09T11:03:20;4.97;;;0.85;;
37411;SDS011;23278;52.110;6.050;2022-09-09T11:08:31;2.63;;;0.60;;
37411;SDS011;23278;52.110;6.050;2022-09-09T11:11:03;4.00;;;0.80;;
37411;SDS011;23278;52.110;6.050;2022-09-09T11:13:42;7.65;;;1.58;;
37411;SDS011;23278;52.110;6.050;2022-09-09T11:16:30;2.80;;;0.70;;
37411;SDS011;23278;52.110;6.050;2022-09-09T11:21:48;2.88;;;0.82;;
37411;SDS011;23278;52.110;6.050;2022-09-09T11:27:09;3.10;;;0.80;;
37411;SDS011;23278;52.110;6.050;2022-09-09T11:35:38;3.97;;;0.90;;
37411;SDS011;23278;52.110;6.050;2022-09-09T11:40:57;3.67;;;0.75;;
37411;SDS011;23278;52.110;6.050;2022-09-09T11:43:31;2.22;;;0.63;;
37411;SDS011;23278;52.110;6.050;2022-09-09T11:46:05;2.40;;;0.63;;
37411;SDS011;23278;52.110;6.050;2022-09-09T11:53:35;4.07;;;0.50;;
37411;SDS011;23278;52.110;6.050;2022-09-09T11:56:13;3.00;;;0.73;;
37411;SDS011;23278;52.110;6.050;2022-09-09T12:01:43;5.25;;;1.23;;
37411;SDS011;23278;52.110;6.050;2022-09-09T12:04:15;4.25;;;0.85;;
37411;SDS011;23278;52.110;6.050;2022-09-09T12:11:52;7.80;;;0.70;;
37411;SDS011;23278;52.110;6.050;2022-09-09T12:14:44;1.75;;;0.50;;
37411;SDS011;23278;52.110;6.050;2022-09-09T12:17:22;1.95;;;0.50;;
37411;SDS011;23278;52.110;6.050;2022-09-09T12:22:54;2.47;;;0.60;;
37411;SDS011;23278;52.110;6.050;2022-09-09T12:28:18;3.83;;;0.60;;
37411;SDS011;23278;52.110;6.050;2022-09-09T12:33:49;3.10;;;0.68;;
37411;SDS011;23278;52.110;6.050;2022-09-09T12:36:21;2.38;;;0.50;;
37411;SDS011;23278;52.110;6.050;2022-09-09T12:38:53;2.33;;;0.55;;
37411;SDS011;23278;52.110;6.050;2022-09-09T12:41:23;3.50;;;0.88;;
37411;SDS011;23278;52.110;6.050;2022-09-09T12:43:50;2.20;;;0.40;;
37411;SDS011;23278;52.110;6.050;2022-09-09T12:49:02;4.30;;;0.70;;
37411;SDS011;23278;52.110;6.050;2022-09-09T12:51:29;1.60;;;0.50;;
37411;SDS011;23278;52.110;6.050;2022-09-09T12:53:57;4.60;;;0.90;;
37411;SDS011;23278;52.110;6.050;2022-09-09T12:56:27;1.48;;;0.45;;
37411;SDS011;23278;52.110;6.050;2022-09-09T12:58:56;2.38;;;0.50;;
37411;SDS011;23278;52.110;6.050;2022-09-09T13:01:24;1.55;;;0.60;;
37411;SDS011;23278;52.110;6.050;2022-09-09T13:03:53;2.58;;;0.70;;
37411;SDS011;23278;52.110;6.050;2022-09-09T13:08:53;1.25;;;0.40;;
37411;SDS011;23278;52.110;6.050;2022-09-09T13:11:22;0.95;;;0.40;;
37411;SDS011;23278;52.110;6.050;2022-09-09T13:13:56;3.00;;;0.50;;
37411;SDS011;23278;52.110;6.050;2022-09-09T13:16:34;1.42;;;0.40;;
37411;SDS011;23278;52.110;6.050;2022-09-09T13:19:02;2.53;;;0.50;;
37411;SDS011;23278;52.110;6.050;2022-09-09T13:21:34;2.90;;;0.55;;
37411;SDS011;23278;52.110;6.050;2022-09-09T13:24:04;1.75;;;0.40;;
37411;SDS011;23278;52.110;6.050;2022-09-09T13:26:32;3.08;;;0.68;;
37411;SDS011;23278;52.110;6.050;2022-09-09T13:29:18;1.00;;;0.43;;
37411;SDS011;23278;52.110;6.050;2022-09-09T13:31:44;2.58;;;0.88;;
37411;SDS011;23278;52.110;6.050;2022-09-09T13:34:25;2.78;;;0.50;;
37411;SDS011;23278;52.110;6.050;2022-09-09T13:36:58;1.52;;;0.40;;
37411;SDS011;23278;52.110;6.050;2022-09-09T13:39:30;1.35;;;0.52;;
37411;SDS011;23278;52.110;6.050;2022-09-09T13:41:57;2.17;;;0.93;;
37411;SDS011;23278;52.110;6.050;2022-09-09T13:44:24;1.77;;;0.40;;
37411;SDS011;23278;52.110;6.050;2022-09-09T13:47:04;1.20;;;0.50;;
37411;SDS011;23278;52.110;6.050;2022-09-09T13:49:44;1.50;;;0.57;;
37411;SDS011;23278;52.110;6.050;2022-09-09T13:52:17;3.08;;;0.47;;
37411;SDS011;23278;52.110;6.050;2022-09-09T13:54:51;1.35;;;0.50;;
37411;SDS011;23278;52.110;6.050;2022-09-09T13:57:19;2.25;;;0.47;;
37411;SDS011;23278;52.110;6.050;2022-09-09T13:59:48;1.00;;;0.40;;
37411;SDS011;23278;52.110;6.050;2022-09-09T14:02:17;1.90;;;0.50;;
37411;SDS011;23278;52.110;6.050;2022-09-09T14:04:43;1.50;;;0.50;;
37411;SDS011;23278;52.110;6.050;2022-09-09T14:07:13;1.75;;;0.98;;
37411;SDS011;23278;52.110;6.050;2022-09-09T14:09:41;3.75;;;1.05;;
37411;SDS011;23278;52.110;6.050;2022-09-09T14:12:11;2.75;;;0.63;;
37411;SDS011;23278;52.110;6.050;2022-09-09T14:14:37;2.58;;;0.65;;
37411;SDS011;23278;52.110;6.050;2022-09-09T14:17:04;1.35;;;0.50;;
37411;SDS011;23278;52.110;6.050;2022-09-09T14:19:30;2.53;;;0.45;;
37411;SDS011;23278;52.110;6.050;2022-09-09T14:21:57;1.48;;;0.45;;
37411;SDS011;23278;52.110;6.050;2022-09-09T14:24:23;1.42;;;0.60;;
37411;SDS011;23278;52.110;6.050;2022-09-09T14:26:49;1.80;;;0.50;;
37411;SDS011;23278;52.110;6.050;2022-09-09T14:29:15;2.00;;;0.65;;
37411;SDS011;23278;52.110;6.050;2022-09-09T14:31:41;3.55;;;0.77;;
37411;SDS011;23278;52.110;6.050;2022-09-09T14:34:07;3.22;;;0.80;;
37411;SDS011;23278;52.110;6.050;2022-09-09T14:36:33;4.70;;;0.60;;
37411;SDS011;23278;52.110;6.050;2022-09-09T14:38:58;3.20;;;0.60;;
37411;SDS011;23278;52.110;6.050;2022-09-09T14:41:24;4.85;;;0.70;;
37411;SDS011;23278;52.110;6.050;2022-09-09T14:43:50;1.70;;;0.50;;
37411;SDS011;23278;52.110;6.050;2022-09-09T14:46:17;2.50;;;0.60;;
37411;SDS011;23278;52.110;6.050;2022-09-09T14:48:45;1.10;;;0.50;;
37411;SDS011;23278;52.110;6.050;2022-09-09T14:51:14;0.95;;;0.50;;
37411;SDS011;23278;52.110;6.050;2022-09-09T14:53:42;2.90;;;0.52;;
37411;SDS011;23278;52.110;6.050;2022-09-09T14:56:10;2.17;;;0.60;;
37411;SDS011;23278;52.110;6.050;2022-09-09T14:58:38;2.03;;;0.50;;
37411;SDS011;23278;52.110;6.050;2022-09-09T15:01:05;2.92;;;0.60;;
37411;SDS011;23278;52.110;6.050;2022-09-09T15:03:39;3.22;;;0.60;;
37411;SDS011;23278;52.110;6.050;2022-09-09T15:06:10;4.88;;;0.88;;
37411;SDS011;23278;52.110;6.050;2022-09-09T15:11:05;3.08;;;0.70;;
37411;SDS011;23278;52.110;6.050;2022-09-09T15:13:34;1.63;;;0.70;;
37411;SDS011;23278;52.110;6.050;2022-09-09T15:16:06;1.27;;;0.60;;
37411;SDS011;23278;52.110;6.050;2022-09-09T15:18:33;1.95;;;1.10;;
37411;SDS011;23278;52.110;6.050;2022-09-09T15:20:59;2.60;;;0.70;;
37411;SDS011;23278;52.110;6.050;2022-09-09T15:23:28;1.42;;;0.50;;
37411;SDS011;23278;52.110;6.050;2022-09-09T15:25:56;2.20;;;0.70;;
37411;SDS011;23278;52.110;6.050;2022-09-09T15:28:22;1.73;;;0.60;;
37411;SDS011;23278;52.110;6.050;2022-09-09T15:30:52;2.78;;;0.80;;
37411;SDS011;23278;52.110;6.050;2022-09-09T15:33:20;2.65;;;0.85;;
37411;SDS011;23278;52.110;6.050;2022-09-09T15:35:47;2.60;;;0.98;;
37411;SDS011;23278;52.110;6.050;2022-09-09T15:38:14;2.78;;;0.82;;
37411;SDS011;23278;52.110;6.050;2022-09-09T15:40:42;4.38;;;0.70;;
37411;SDS011;23278;52.110;6.050;2022-09-09T15:43:08;2.28;;;0.68;;
37411;SDS011;23278;52.110;6.050;2022-09-09T15:45:36;3.22;;;0.80;;
37411;SDS011;23278;52.110;6.050;2022-09-09T15:48:02;1.52;;;0.50;;
37411;SDS011;23278;52.110;6.050;2022-09-09T15:50:29;1.10;;;0.50;;
37411;SDS011;23278;52.110;6.050;2022-09-09T15:52:58;2.45;;;0.70;;
37411;SDS011;23278;52.110;6.050;2022-09-09T15:55:24;4.13;;;0.70;;
37411;SDS011;23278;52.110;6.050;2022-09-09T15:57:50;2.50;;;0.77;;
37411;SDS011;23278;52.110;6.050;2022-09-09T16:00:18;4.53;;;0.82;;
37411;SDS011;23278;52.110;6.050;2022-09-09T16:02:46;2.08;;;0.80;;
37411;SDS011;23278;52.110;6.050;2022-09-09T16:05:12;1.95;;;0.52;;
37411;SDS011;23278;52.110;6.050;2022-09-09T16:07:38;1.48;;;0.50;;
37411;SDS011;23278;52.110;6.050;2022-09-09T16:10:04;1.23;;;0.47;;
37411;SDS011;23278;52.110;6.050;2022-09-09T16:12:31;1.65;;;0.50;;
37411;SDS011;23278;52.110;6.050;2022-09-09T16:14:57;1.27;;;0.50;;
37411;SDS011;23278;52.110;6.050;2022-09-09T16:17:24;2.05;;;0.43;;
37411;SDS011;23278;52.110;6.050;2022-09-09T16:19:50;1.05;;;0.50;;
37411;SDS011;23278;52.110;6.050;2022-09-09T16:22:16;1.75;;;0.75;;
37411;SDS011;23278;52.110;6.050;2022-09-09T16:24:43;0.60;;;0.35;;
37411;SDS011;23278;52.110;6.050;2022-09-09T16:27:10;1.25;;;0.40;;
37411;SDS011;23278;52.110;6.050;2022-09-09T16:29:36;1.25;;;0.40;;
37411;SDS011;23278;52.110;6.050;2022-09-09T16:32:02;3.63;;;0.73;;
37411;SDS011;23278;52.110;6.050;2022-09-09T16:34:28;1.08;;;0.50;;
37411;SDS011;23278;52.110;6.050;2022-09-09T16:36:54;1.92;;;0.77;;
37411;SDS011;23278;52.110;6.050;2022-09-09T16:39:21;0.60;;;0.28;;
37411;SDS011;23278;52.110;6.050;2022-09-09T16:41:47;0.80;;;0.40;;
37411;SDS011;23278;52.110;6.050;2022-09-09T16:44:14;1.38;;;0.40;;
37411;SDS011;23278;52.110;6.050;2022-09-09T16:46:43;0.90;;;0.60;;
37411;SDS011;23278;52.110;6.050;2022-09-09T16:49:12;1.00;;;0.40;;
37411;SDS011;23278;52.110;6.050;2022-09-09T16:51:41;0.77;;;0.57;;
37411;SDS011;23278;52.110;6.050;2022-09-09T16:54:09;0.98;;;0.30;;
37411;SDS011;23278;52.110;6.050;2022-09-09T16:56:37;0.63;;;0.60;;
37411;SDS011;23278;52.110;6.050;2022-09-09T16:59:07;0.80;;;0.40;;
37411;SDS011;23278;52.110;6.050;2022-09-09T17:01:36;0.57;;;0.32;;
37411;SDS011;23278;52.110;6.050;2022-09-09T17:04:04;2.42;;;0.50;;
37411;SDS011;23278;52.110;6.050;2022-09-09T17:06:33;1.48;;;0.50;;
37411;SDS011;23278;52.110;6.050;2022-09-09T17:09:00;0.98;;;0.40;;
37411;SDS011;23278;52.110;6.050;2022-09-09T17:11:28;1.67;;;0.70;;
37411;SDS011;23278;52.110;6.050;2022-09-09T17:13:55;1.27;;;0.50;;
37411;SDS011;23278;52.110;6.050;2022-09-09T17:16:24;1.77;;;0.50;;
37411;SDS011;23278;52.110;6.050;2022-09-09T17:18:52;1.63;;;0.60;;
37411;SDS011;23278;52.110;6.050;2022-09-09T17:21:20;1.95;;;0.65;;
37411;SDS011;23278;52.110;6.050;2022-09-09T17:23:48;1.02;;;0.40;;
37411;SDS011;23278;52.110;6.050;2022-09-09T17:26:16;0.57;;;0.30;;
37411;SDS011;23278;52.110;6.050;2022-09-09T17:28:44;1.75;;;0.50;;
37411;SDS011;23278;52.110;6.050;2022-09-09T17:31:11;1.67;;;0.50;;
37411;SDS011;23278;52.110;6.050;2022-09-09T17:33:40;1.35;;;0.50;;
37411;SDS011;23278;52.110;6.050;2022-09-09T17:36:11;2.88;;;0.47;;
37411;SDS011;23278;52.110;6.050;2022-09-09T17:38:54;3.28;;;0.63;;